createdAt,value
2018-12-09T00:00:25.134Z,3.28
2018-12-09T00:06:20.128Z,4.45
2018-12-09T00:12:15.153Z,4.77
2018-12-09T00:18:10.151Z,5.76
2018-12-09T00:24:05.144Z,3.94
2018-12-09T00:30:00.177Z,3.53
2018-12-09T00:35:55.163Z,3.97
2018-12-09T00:41:50.185Z,3.82
2018-12-09T00:47:45.206Z,4.36
2018-12-09T00:53:40.180Z,4.37
2018-12-09T00:59:35.188Z,4.42
2018-12-09T01:05:30.188Z,5.11
2018-12-09T01:11:25.188Z,5.28
2018-12-09T01:17:20.167Z,4.76
2018-12-09T01:23:15.187Z,3.91
2018-12-09T01:29:10.190Z,4.29
2018-12-09T01:35:05.205Z,4.84
2018-12-09T01:41:00.192Z,4.35
2018-12-09T01:46:55.220Z,4.36
2018-12-09T01:52:50.198Z,5.27
2018-12-09T01:58:45.193Z,4.72
2018-12-09T02:04:40.199Z,4.91
2018-12-09T02:10:35.238Z,4.16
2018-12-09T02:16:30.213Z,3.9
2018-12-09T02:22:25.230Z,3.59
2018-12-09T02:28:20.230Z,4.6
2018-12-09T02:34:15.232Z,3.91
2018-12-09T02:40:10.289Z,4.18
2018-12-09T02:46:05.235Z,4.24
2018-12-09T02:52:00.257Z,4.97
2018-12-09T02:57:55.229Z,4.94
2018-12-09T03:03:50.225Z,4.87
2018-12-09T03:09:45.229Z,5
2018-12-09T03:15:40.251Z,6.65
2018-12-09T03:21:35.240Z,5.54
2018-12-09T03:27:30.303Z,5.99
2018-12-09T03:33:25.247Z,6.39
2018-12-09T03:39:20.289Z,6.14
2018-12-09T03:45:15.255Z,5.84
2018-12-09T03:51:10.300Z,6.02
2018-12-09T03:57:05.256Z,6.42
2018-12-09T04:03:00.337Z,5.85
2018-12-09T04:08:55.254Z,6.41
2018-12-09T04:14:50.275Z,6.19
2018-12-09T04:20:45.327Z,7.7
2018-12-09T04:26:40.296Z,8.26
2018-12-09T04:32:35.305Z,8.87
2018-12-09T04:38:30.311Z,7.41
2018-12-09T04:44:25.291Z,7.16
2018-12-09T04:50:20.292Z,7.22
2018-12-09T04:56:15.351Z,9.27
2018-12-09T05:02:10.343Z,10.29
2018-12-09T05:08:05.325Z,11.03
2018-12-09T05:14:00.292Z,10.2
2018-12-09T05:19:55.310Z,10.32
2018-12-09T05:25:50.347Z,10.22
2018-12-09T05:31:45.323Z,10.22
2018-12-09T05:37:40.354Z,10.73
2018-12-09T05:43:35.339Z,9.41
2018-12-09T05:49:30.315Z,8.08
2018-12-09T05:55:25.360Z,7.77
2018-12-09T06:01:20.412Z,6.76
2018-12-09T06:07:15.331Z,6.17
2018-12-09T06:13:10.345Z,9.9
2018-12-09T06:19:05.327Z,10.09
2018-12-09T06:25:00.399Z,8.75
2018-12-09T06:30:55.391Z,8.05
2018-12-09T06:36:50.321Z,9.15
2018-12-09T06:42:45.359Z,9.56
2018-12-09T06:48:40.356Z,9.27
2018-12-09T06:54:35.376Z,9.47
2018-12-09T07:00:30.380Z,6.13
2018-12-09T07:06:25.356Z,8.31
2018-12-09T07:12:20.370Z,6.13
2018-12-09T07:18:15.367Z,6.19
2018-12-09T07:24:10.365Z,12.03
2018-12-09T07:30:05.368Z,12.16
2018-12-09T07:36:00.358Z,12.27
2018-12-09T07:41:55.354Z,10.95
2018-12-09T07:47:50.375Z,11.81
2018-12-09T07:53:45.347Z,12.36
2018-12-09T07:59:40.394Z,12.35
2018-12-09T08:05:35.404Z,10.4
2018-12-09T08:11:30.374Z,7.05
2018-12-09T08:17:25.402Z,6.32
2018-12-09T08:23:20.394Z,6.21
2018-12-09T08:29:15.392Z,5.82
2018-12-09T08:35:10.387Z,5.27
2018-12-09T08:41:05.391Z,7.63
2018-12-09T08:47:00.409Z,6.3
2018-12-09T08:52:55.404Z,7.36
2018-12-09T08:58:50.403Z,6.43
2018-12-09T09:04:45.428Z,5.44
2018-12-09T09:10:40.409Z,7.01
2018-12-09T09:16:35.410Z,6.19
2018-12-09T09:22:30.441Z,5.97
2018-12-09T09:28:25.472Z,5.69
2018-12-09T09:34:20.430Z,5.72
2018-12-09T09:40:15.445Z,8.25
2018-12-09T09:46:10.454Z,9.91
2018-12-09T09:52:05.437Z,9.28
2018-12-09T09:58:00.442Z,12.77
2018-12-09T10:03:57.219Z,12.34
2018-12-09T10:09:50.440Z,6.97
2018-12-09T10:15:45.468Z,6.96
2018-12-09T10:21:40.447Z,5.97
2018-12-09T10:27:35.498Z,6.02
2018-12-09T10:33:30.457Z,6.17
2018-12-09T10:39:25.590Z,6.82
2018-12-09T10:45:20.474Z,6.01
2018-12-09T10:51:15.497Z,5.54
2018-12-09T10:57:10.528Z,5.67
2018-12-09T11:03:05.489Z,6.75
2018-12-09T11:09:00.499Z,8.34
2018-12-09T11:14:55.505Z,6.17
2018-12-09T11:20:50.531Z,6.23
2018-12-09T11:26:45.507Z,6.98
2018-12-09T11:32:40.501Z,6.35
2018-12-09T11:38:35.507Z,5.5
2018-12-09T11:44:30.511Z,5.89
2018-12-09T11:50:25.529Z,6.15
2018-12-09T11:56:20.558Z,7
2018-12-09T12:02:19.929Z,5.89
2018-12-09T12:08:10.576Z,5.91
2018-12-09T12:14:05.568Z,5.57
2018-12-09T12:20:00.577Z,5.52
2018-12-09T12:25:55.520Z,6.92
2018-12-09T12:31:50.560Z,5.6
2018-12-09T12:37:45.603Z,5.68
2018-12-09T12:43:40.552Z,5.27
2018-12-09T12:49:35.563Z,5.98
2018-12-09T12:55:30.557Z,6.17
2018-12-09T13:01:25.564Z,7.03
2018-12-09T13:07:20.583Z,7.38
2018-12-09T13:13:15.605Z,8.1
2018-12-09T13:19:10.591Z,8.73
2018-12-09T13:25:05.612Z,11.59
2018-12-09T13:31:00.586Z,10.96
2018-12-09T13:36:55.576Z,10.78
2018-12-09T13:42:50.582Z,10.89
2018-12-09T13:48:45.596Z,13.16
2018-12-09T13:54:40.589Z,14.7
2018-12-09T14:00:35.601Z,11.01
2018-12-09T14:06:30.614Z,10.75
2018-12-09T14:12:25.595Z,9.74
2018-12-09T14:18:20.587Z,11.75
2018-12-09T14:24:15.601Z,10.07
2018-12-09T14:30:10.653Z,13.42
2018-12-09T14:36:05.637Z,7.53
2018-12-09T14:42:00.608Z,7
2018-12-09T14:47:55.605Z,7.16
2018-12-09T14:53:50.617Z,6.26
2018-12-09T14:59:45.692Z,8.22
2018-12-09T15:05:40.641Z,6.93
2018-12-09T15:11:35.687Z,7.53
2018-12-09T15:17:30.689Z,5.89
2018-12-09T15:23:25.625Z,6.63
2018-12-09T15:29:20.649Z,6.01
2018-12-09T15:35:15.640Z,10.47
2018-12-09T15:41:10.645Z,9.02
2018-12-09T15:47:05.672Z,7.25
2018-12-09T15:53:00.668Z,5.44
2018-12-09T15:58:55.690Z,6.26
2018-12-09T16:04:50.669Z,5.76
2018-12-09T16:10:45.684Z,6.48
2018-12-09T16:16:40.728Z,5.42
2018-12-09T16:22:35.722Z,5.41
2018-12-09T16:28:30.663Z,6.33
2018-12-09T16:34:25.669Z,6.3
2018-12-09T16:40:20.678Z,5.72
2018-12-09T16:46:15.778Z,5.18
2018-12-09T16:52:10.703Z,6.59
2018-12-09T16:58:05.697Z,4.9
2018-12-09T17:04:00.696Z,5.37
2018-12-09T17:09:55.743Z,4.56
2018-12-09T17:15:50.710Z,5.53
2018-12-09T17:21:45.718Z,6.38
2018-12-09T17:27:40.714Z,4.75
2018-12-09T17:33:35.756Z,4.87
2018-12-09T17:39:30.724Z,4.99
2018-12-09T17:45:25.757Z,4.15
2018-12-09T17:51:20.804Z,4.39
2018-12-09T17:57:15.844Z,3.5
2018-12-09T18:03:10.746Z,5
2018-12-09T18:09:05.744Z,5.81
2018-12-09T18:15:00.826Z,7
2018-12-09T18:20:55.772Z,4.98
2018-12-09T18:26:50.765Z,7.58
2018-12-09T18:32:45.809Z,6.65
2018-12-09T18:38:40.756Z,7.57
2018-12-09T18:44:35.766Z,8.72
2018-12-09T18:50:30.750Z,7.74
2018-12-09T18:56:25.795Z,7.15
2018-12-09T19:02:20.785Z,13.26
2018-12-09T19:08:15.787Z,11.33
2018-12-09T19:14:10.795Z,8.27
2018-12-09T19:20:05.819Z,9.18
2018-12-09T19:26:00.789Z,11.6
2018-12-09T19:31:55.788Z,10.46
2018-12-09T19:37:50.808Z,8.03
2018-12-09T19:43:45.794Z,7.65
2018-12-09T19:49:40.817Z,9.49
2018-12-09T19:55:35.808Z,7.84
2018-12-09T20:01:30.829Z,7.63
2018-12-09T20:07:25.816Z,6.68
2018-12-09T20:13:20.847Z,9.85
2018-12-09T20:19:15.804Z,7.25
2018-12-09T20:25:10.825Z,9.37
2018-12-09T20:31:05.833Z,7.93
2018-12-09T20:37:00.820Z,7.86
2018-12-09T20:42:55.844Z,7.98
2018-12-09T20:48:50.873Z,8.05
2018-12-09T20:54:45.881Z,7.07
2018-12-09T21:00:40.896Z,7.27
2018-12-09T21:06:35.835Z,12.15
2018-12-09T21:12:30.890Z,12.44
2018-12-09T21:18:25.858Z,14.4
2018-12-09T21:24:25.669Z,10.23
2018-12-09T21:30:15.904Z,8.53
2018-12-09T21:36:10.974Z,7.54
2018-12-09T21:42:05.885Z,6.6
2018-12-09T21:48:00.891Z,7.2
2018-12-09T21:53:55.876Z,8.95
2018-12-09T21:59:50.878Z,7.94
2018-12-09T22:05:45.872Z,9.66
2018-12-09T22:11:41.035Z,7.41
2018-12-09T22:17:35.894Z,7.89
2018-12-09T22:23:30.888Z,8.73
2018-12-09T22:29:25.898Z,8.38
2018-12-09T22:35:20.932Z,7.77
2018-12-09T22:41:15.898Z,9.78
2018-12-09T22:47:10.886Z,8.64
2018-12-09T22:53:05.917Z,7.48
2018-12-09T22:59:00.908Z,6.88
2018-12-09T23:04:55.902Z,7.35
2018-12-09T23:10:50.972Z,9.66
2018-12-09T23:16:45.966Z,9.93
2018-12-09T23:22:40.938Z,7.02
2018-12-09T23:28:35.923Z,8.06
2018-12-09T23:34:30.935Z,10.98
2018-12-09T23:40:25.917Z,11.46
2018-12-09T23:46:20.917Z,11.67
2018-12-09T23:52:15.955Z,9.72
2018-12-09T23:58:10.920Z,7.95
